Dallas, TX (75201)

4:41 PM CDT on August 30, 2015 (GMT -0500)
Deep Ellum | | Change Station
CLOSE
Current Station
Personal Weather Station
Location: Dallas, TX
Elevation: 489 ft
Nearby Weather Stations

Elev 489 ft 32.78 °N, 96.78 °W | Updated 3 seconds ago

Mostly Cloudy
Mostly Cloudy
95.5 °F
Feels Like 98 °F
N
2.7
Wind Variable Wind from South
Gusts 4.9 mph

Today
High -- | Low -- °F
--% Chance of Precip.
Yesterday
High -- | Low -- °F
Precip. -- in
7:00 AM 7:54 PM
Full, 98% visible
Pressure 29.91 in
Visibility 10.0 miles
Clouds Few 8000 ft
Scattered Clouds 19000 ft
Mostly Cloudy 30000 ft
Heat Index 98 °F
Dew Point 65 °F
Humidity 37%
Rainfall 0.00 in
Snow Depth Not available.
UV 2.0 out of 12
Pollen 8.70 out of 12
Air Quality Not available.
Flu Activity Not available.
METAR KDAL 302053Z 28005KT 10SM FEW080TCU SCT190 BKN300 36/13 A2993 RMK AO2 SLP128 TCU SE T03610133 58019
Pressure 29.91 in
Visibility 10.0 miles
Clouds Few 8000 ft
Scattered Clouds 19000 ft
Mostly Cloudy 30000 ft
Heat Index 98 °F
Dew Point 65 °F
Humidity 37%
Rainfall 0.00 in
Snow Depth Not available.
UV 2.0 out of 12
Pollen 8.70 out of 12
Air Quality Not available.
Flu Activity Not available.
METAR KDAL 302053Z 28005KT 10SM FEW080TCU SCT190 BKN300 36/13 A2993 RMK AO2 SLP128 TCU SE T03610133 58019
Nowcast | as of 3:16 PM CDT on August 30, 2015

Showers and thunderstorms will continue to develop the remainder of the afternoon. The bulk of the activity will be south of the I-20 corridor. The strongest storms will be capable of heavy rain...small hail...and wind gusts in excess of 40 mph. Those engaged in outdoor activities should keep abreast of the weather. Move indoors immediately if lightning is seen or thunder is heard.

×

10-Day Weather Forecast

×

Almanac

Astronomy

Aug. 30, 2015 Rise Set
Actual Time
Civil Twilight
Nautical Twilight
Astronomical Twilight
Moon
Length of Visible Light
Length of Day
Tomorrow will be .
, % of the Moon is Illuminated

Today's Extremes

State Highs State Lows

Community

WunderPhotos

Upload Photos

1,851,063 photos uploaded!

WunderBlogs® & News

Nearby

Air Quality

  Air Quality AQ Index Pollutant
Not available.

Snow Depth

Station Depth Elevation

Earthquake Activity

City Distance Mag. Time & Date
Minimum magnitude displayed is 2.5.

Coastal Water Temperatures

Place Temperature

Stations

Nearby Weather Stations

Station Location Temp. Windchill Dew Point Humidity Wind Precip. Elev Updated Type